createdAt,value
2022-12-01T00:00:44.324Z,1001.11
2022-12-01T00:01:44.484Z,1001.11
2022-12-01T00:02:44.416Z,1001.15
2022-12-01T00:03:44.299Z,1001.14
2022-12-01T00:04:44.303Z,1001.14
2022-12-01T00:05:44.289Z,1001.11
2022-12-01T00:06:44.299Z,1001.08
2022-12-01T00:07:44.326Z,1001.13
2022-12-01T00:08:44.265Z,1001.07
2022-12-01T00:09:44.255Z,1001.06
2022-12-01T00:10:44.246Z,1001.08
2022-12-01T00:11:45.266Z,1001.07
2022-12-01T00:12:44.237Z,1001.11
2022-12-01T00:13:44.221Z,1001.10
2022-12-01T00:14:44.240Z,1001.07
2022-12-01T00:15:44.209Z,1001.09
2022-12-01T00:16:44.250Z,1001.16
2022-12-01T00:17:44.216Z,1001.13
2022-12-01T00:18:44.184Z,1001.10
2022-12-01T00:19:44.180Z,1001.15
2022-12-01T00:20:44.181Z,1001.17
2022-12-01T00:21:44.170Z,1001.15
2022-12-01T00:22:44.177Z,1001.12
2022-12-01T00:23:44.148Z,1001.19
2022-12-01T00:24:44.149Z,1001.13
2022-12-01T00:25:44.137Z,1001.12
2022-12-01T00:26:44.134Z,1001.16
2022-12-01T00:27:44.148Z,1001.11
2022-12-01T00:28:44.121Z,1001.13
2022-12-01T00:29:44.120Z,1001.18
2022-12-01T00:30:44.109Z,1001.16
2022-12-01T00:31:44.162Z,1001.17
2022-12-01T00:32:44.117Z,1001.16
2022-12-01T00:33:44.091Z,1001.19
2022-12-01T00:34:44.076Z,1001.13
2022-12-01T00:35:44.068Z,1001.17
2022-12-01T00:36:44.068Z,1001.16
2022-12-01T00:37:44.048Z,1001.19
2022-12-01T00:38:44.063Z,1001.18
2022-12-01T00:39:44.041Z,1001.17
2022-12-01T00:40:44.029Z,1001.17
2022-12-01T00:41:44.020Z,1001.21
2022-12-01T00:42:44.009Z,1001.20
2022-12-01T00:43:44.023Z,1001.19
2022-12-01T00:44:43.997Z,1001.16
2022-12-01T00:45:44.067Z,1001.18
2022-12-01T00:46:43.990Z,1001.21
2022-12-01T00:47:43.984Z,1001.19
2022-12-01T00:48:43.985Z,1001.20
2022-12-01T00:49:43.972Z,1001.23
2022-12-01T00:50:43.962Z,1001.17
2022-12-01T00:51:44.001Z,1001.23
2022-12-01T00:52:43.948Z,1001.21
2022-12-01T00:53:43.941Z,1001.21
2022-12-01T00:54:43.942Z,1001.25
2022-12-01T00:55:43.929Z,1001.18
2022-12-01T00:56:43.941Z,1001.28
2022-12-01T00:57:43.917Z,1001.25
2022-12-01T00:58:43.896Z,1001.20
2022-12-01T00:59:43.902Z,1001.27
2022-12-01T01:00:43.893Z,1001.20
2022-12-01T01:01:43.952Z,1001.23
2022-12-01T01:02:43.973Z,1001.24
2022-12-01T01:03:43.886Z,1001.25
2022-12-01T01:04:43.858Z,1001.22
2022-12-01T01:05:43.874Z,1001.26
2022-12-01T01:06:43.853Z,1001.23
2022-12-01T01:07:43.935Z,1001.30
2022-12-01T01:08:43.839Z,1001.27
2022-12-01T01:09:43.835Z,1001.25
2022-12-01T01:10:43.822Z,1001.23
2022-12-01T01:11:43.825Z,1001.21
2022-12-01T01:12:43.816Z,1001.23
2022-12-01T01:13:43.816Z,1001.22
2022-12-01T01:14:43.796Z,1001.26
2022-12-01T01:15:43.798Z,1001.28
2022-12-01T01:16:43.907Z,1001.27
2022-12-01T01:17:43.783Z,1001.29
2022-12-01T01:18:43.819Z,1001.29
2022-12-01T01:19:43.766Z,1001.29
2022-12-01T01:20:43.747Z,1001.32
2022-12-01T01:21:43.745Z,1001.32
2022-12-01T01:22:43.760Z,1001.32
2022-12-01T01:23:43.760Z,1001.31
2022-12-01T01:24:43.749Z,1001.28
2022-12-01T01:25:43.719Z,1001.36
2022-12-01T01:26:43.724Z,1001.40
2022-12-01T01:27:43.705Z,1001.41
2022-12-01T01:28:43.706Z,1001.41
2022-12-01T01:29:43.708Z,1001.44
2022-12-01T01:30:43.720Z,1001.40
2022-12-01T01:31:44.672Z,1001.44
2022-12-01T01:32:43.677Z,1001.38
2022-12-01T01:33:43.672Z,1001.38
2022-12-01T01:34:43.675Z,1001.38
2022-12-01T01:35:43.657Z,1001.37
2022-12-01T01:36:43.652Z,1001.36
2022-12-01T01:37:43.649Z,1001.39
2022-12-01T01:38:43.641Z,1001.35
2022-12-01T01:39:43.645Z,1001.39
2022-12-01T01:40:43.624Z,1001.36
2022-12-01T01:41:43.611Z,1001.37
2022-12-01T01:42:43.620Z,1001.39
2022-12-01T01:43:43.608Z,1001.40
2022-12-01T01:44:43.612Z,1001.37
2022-12-01T01:45:43.613Z,1001.39
2022-12-01T01:46:43.600Z,1001.38
2022-12-01T01:47:43.573Z,1001.38
2022-12-01T01:48:43.588Z,1001.35
2022-12-01T01:49:43.560Z,1001.38
2022-12-01T01:50:43.564Z,1001.40
2022-12-01T01:51:43.548Z,1001.41
2022-12-01T01:52:43.541Z,1001.35
2022-12-01T01:53:43.535Z,1001.32
2022-12-01T01:54:43.549Z,1001.45
2022-12-01T01:55:43.544Z,1001.42
2022-12-01T01:56:43.513Z,1001.39
2022-12-01T01:57:43.500Z,1001.47
2022-12-01T01:58:43.500Z,1001.39
2022-12-01T01:59:43.493Z,1001.44
2022-12-01T02:00:43.543Z,1001.41
2022-12-01T02:01:43.514Z,1001.43
2022-12-01T02:02:43.535Z,1001.39
2022-12-01T02:03:43.456Z,1001.48
2022-12-01T02:04:43.461Z,1001.42
2022-12-01T02:05:43.456Z,1001.48
2022-12-01T02:06:43.480Z,1001.43
2022-12-01T02:07:43.469Z,1001.46
2022-12-01T02:08:43.433Z,1001.47
2022-12-01T02:09:43.419Z,1001.47
2022-12-01T02:10:43.412Z,1001.42
2022-12-01T02:11:43.439Z,1001.42
2022-12-01T02:12:43.400Z,1001.44
2022-12-01T02:13:43.401Z,1001.48
2022-12-01T02:14:43.396Z,1001.45
2022-12-01T02:15:43.380Z,1001.48
2022-12-01T02:16:43.394Z,1001.43
2022-12-01T02:17:43.397Z,1001.44
2022-12-01T02:18:43.351Z,1001.52
2022-12-01T02:19:43.352Z,1001.52
2022-12-01T02:20:43.352Z,1001.45
2022-12-01T02:21:43.335Z,1001.52
2022-12-01T02:22:43.355Z,1001.45
2022-12-01T02:23:43.328Z,1001.47
2022-12-01T02:24:43.312Z,1001.53
2022-12-01T02:25:43.309Z,1001.44
2022-12-01T02:26:43.312Z,1001.46
2022-12-01T02:27:43.291Z,1001.48
2022-12-01T02:28:43.291Z,1001.45
2022-12-01T02:29:43.301Z,1001.49
2022-12-01T02:30:43.292Z,1001.52
2022-12-01T02:31:43.272Z,1001.52
2022-12-01T02:32:43.268Z,1001.51
2022-12-01T02:33:43.251Z,1001.45
2022-12-01T02:34:43.252Z,1001.49
2022-12-01T02:35:43.243Z,1001.52
2022-12-01T02:36:43.236Z,1001.48
2022-12-01T02:37:43.231Z,1001.48
2022-12-01T02:38:43.240Z,1001.53
2022-12-01T02:39:43.219Z,1001.55
2022-12-01T02:40:43.220Z,1001.48
2022-12-01T02:41:43.213Z,1001.47
2022-12-01T02:42:43.206Z,1001.52
2022-12-01T02:43:43.205Z,1001.48
2022-12-01T02:44:43.175Z,1001.48
2022-12-01T02:45:43.232Z,1001.51
2022-12-01T02:46:43.167Z,1001.49
2022-12-01T02:47:43.165Z,1001.53
2022-12-01T02:48:43.175Z,1001.43
2022-12-01T02:49:43.159Z,1001.50
2022-12-01T02:50:43.151Z,1001.50
2022-12-01T02:51:43.135Z,1001.49
2022-12-01T02:52:43.132Z,1001.51
2022-12-01T02:53:43.135Z,1001.48
2022-12-01T02:54:43.132Z,1001.57
2022-12-01T02:55:43.112Z,1001.48
2022-12-01T02:56:43.091Z,1001.58
2022-12-01T02:57:43.099Z,1001.57
2022-12-01T02:58:43.095Z,1001.54
2022-12-01T02:59:43.079Z,1001.54
2022-12-01T03:00:43.101Z,1001.55
2022-12-01T03:01:43.138Z,1001.52
2022-12-01T03:02:43.210Z,1001.53
2022-12-01T03:03:43.063Z,1001.62
2022-12-01T03:04:43.058Z,1001.55
2022-12-01T03:05:43.040Z,1001.59
2022-12-01T03:06:43.051Z,1001.59
2022-12-01T03:07:43.064Z,1001.56
2022-12-01T03:08:43.027Z,1001.54
2022-12-01T03:09:43.014Z,1001.54
2022-12-01T03:10:43.015Z,1001.55
2022-12-01T03:11:43.026Z,1001.46
2022-12-01T03:12:42.996Z,1001.48
2022-12-01T03:13:42.987Z,1001.45
2022-12-01T03:14:42.991Z,1001.43
2022-12-01T03:15:43.037Z,1001.48
2022-12-01T03:16:42.991Z,1001.44
2022-12-01T03:17:42.958Z,1001.45
2022-12-01T03:18:42.954Z,1001.43
2022-12-01T03:19:42.958Z,1001.42
2022-12-01T03:20:42.958Z,1001.47
2022-12-01T03:21:42.941Z,1001.41
2022-12-01T03:22:42.940Z,1001.45
2022-12-01T03:23:42.922Z,1001.42
2022-12-01T03:24:42.922Z,1001.43
2022-12-01T03:25:42.919Z,1001.48
2022-12-01T03:26:42.918Z,1001.45
2022-12-01T03:28:00.557Z,1001.46
2022-12-01T03:28:44.897Z,1001.45
2022-12-01T03:29:42.893Z,1001.50
2022-12-01T03:30:42.883Z,1001.47
2022-12-01T03:31:42.933Z,1001.48
2022-12-01T03:32:42.900Z,1001.45
2022-12-01T03:33:42.854Z,1001.46
2022-12-01T03:34:42.854Z,1001.41
2022-12-01T03:35:42.862Z,1001.47
2022-12-01T03:36:42.837Z,1001.43
2022-12-01T03:37:42.824Z,1001.38
2022-12-01T03:38:42.859Z,1001.47
2022-12-01T03:39:42.821Z,1001.41
2022-12-01T03:40:42.817Z,1001.46
2022-12-01T03:41:42.822Z,1001.43
2022-12-01T03:42:42.801Z,1001.45
2022-12-01T03:43:42.809Z,1001.42
2022-12-01T03:44:42.845Z,1001.41
2022-12-01T03:45:42.786Z,1001.35
2022-12-01T03:46:42.838Z,1001.39
2022-12-01T03:47:42.784Z,1001.36
2022-12-01T03:48:42.776Z,1001.40
2022-12-01T03:49:42.781Z,1001.39
2022-12-01T03:50:42.754Z,1001.44
2022-12-01T03:51:42.750Z,1001.43
2022-12-01T03:52:42.742Z,1001.41
2022-12-01T03:53:42.746Z,1001.41
2022-12-01T03:54:42.754Z,1001.43
2022-12-01T03:55:42.778Z,1001.42
2022-12-01T03:56:42.713Z,1001.47
2022-12-01T03:57:42.744Z,1001.41
2022-12-01T03:58:42.698Z,1001.43
2022-12-01T03:59:42.757Z,1001.47
2022-12-01T04:00:42.706Z,1001.37
2022-12-01T04:01:42.712Z,1001.42
2022-12-01T04:02:42.720Z,1001.39
2022-12-01T04:03:42.668Z,1001.49
2022-12-01T04:04:42.685Z,1001.42
2022-12-01T04:05:42.658Z,1001.44
2022-12-01T04:06:42.642Z,1001.45
2022-12-01T04:07:42.651Z,1001.45
2022-12-01T04:08:42.629Z,1001.47
2022-12-01T04:09:42.644Z,1001.48
2022-12-01T04:10:42.629Z,1001.51
2022-12-01T04:11:42.597Z,1001.48
2022-12-01T04:12:42.610Z,1001.45
2022-12-01T04:13:42.590Z,1001.54
2022-12-01T04:14:42.588Z,1001.47
2022-12-01T04:15:42.605Z,1001.50
2022-12-01T04:16:42.593Z,1001.46
2022-12-01T04:17:42.565Z,1001.50
2022-12-01T04:18:42.562Z,1001.46
2022-12-01T04:19:42.556Z,1001.49
2022-12-01T04:20:42.553Z,1001.42
2022-12-01T04:21:42.598Z,1001.47
2022-12-01T04:22:42.537Z,1001.51
2022-12-01T04:23:42.533Z,1001.45
2022-12-01T04:24:42.525Z,1001.48
2022-12-01T04:25:42.521Z,1001.56
2022-12-01T04:26:42.513Z,1001.53
2022-12-01T04:27:42.513Z,1001.50
2022-12-01T04:28:42.504Z,1001.54
2022-12-01T04:29:42.493Z,1001.53
2022-12-01T04:30:42.493Z,1001.56
2022-12-01T04:31:42.512Z,1001.49
2022-12-01T04:32:42.482Z,1001.51
2022-12-01T04:33:42.473Z,1001.54
2022-12-01T04:34:42.469Z,1001.53
2022-12-01T04:35:42.457Z,1001.55
2022-12-01T04:36:42.453Z,1001.53
2022-12-01T04:37:42.450Z,1001.54
2022-12-01T04:38:42.450Z,1001.52
2022-12-01T04:39:42.429Z,1001.53
2022-12-01T04:40:42.442Z,1001.55
2022-12-01T04:41:42.419Z,1001.50
2022-12-01T04:42:42.409Z,1001.57
2022-12-01T04:43:42.407Z,1001.54
2022-12-01T04:44:42.393Z,1001.58
2022-12-01T04:45:42.397Z,1001.59
2022-12-01T04:46:42.441Z,1001.57
2022-12-01T04:47:42.377Z,1001.61
2022-12-01T04:48:42.374Z,1001.56
2022-12-01T04:49:42.358Z,1001.56
2022-12-01T04:50:42.366Z,1001.54
2022-12-01T04:51:42.351Z,1001.58
2022-12-01T04:52:42.349Z,1001.54
2022-12-01T04:53:42.328Z,1001.62
2022-12-01T04:54:42.332Z,1001.56
2022-12-01T04:55:42.329Z,1001.58
2022-12-01T04:56:42.317Z,1001.60
2022-12-01T04:57:42.322Z,1001.62
2022-12-01T04:58:42.306Z,1001.58
2022-12-01T04:59:42.303Z,1001.59
2022-12-01T05:00:42.356Z,1001.61
2022-12-01T05:01:43.372Z,1001.61
2022-12-01T05:02:42.305Z,1001.64
2022-12-01T05:03:43.277Z,1001.63
2022-12-01T05:04:42.273Z,1001.65
2022-12-01T05:05:42.261Z,1001.65
2022-12-01T05:06:42.255Z,1001.70
2022-12-01T05:07:42.395Z,1001.70
2022-12-01T05:08:42.244Z,1001.66
2022-12-01T05:09:42.235Z,1001.65
2022-12-01T05:10:42.221Z,1001.66
2022-12-01T05:11:42.213Z,1001.66
2022-12-01T05:12:42.215Z,1001.69
2022-12-01T05:13:42.229Z,1001.65
2022-12-01T05:14:42.225Z,1001.70
2022-12-01T05:15:42.189Z,1001.74
2022-12-01T05:16:43.239Z,1001.72
2022-12-01T05:17:42.185Z,1001.70
2022-12-01T05:18:42.246Z,1001.68
2022-12-01T05:19:42.177Z,1001.76
2022-12-01T05:20:42.161Z,1001.82
2022-12-01T05:21:42.149Z,1001.75
2022-12-01T05:23:04.854Z,1001.83
2022-12-01T05:23:44.141Z,1001.74
2022-12-01T05:24:42.148Z,1001.77
2022-12-01T05:25:42.114Z,1001.81
2022-12-01T05:26:42.122Z,1001.79
2022-12-01T05:27:42.113Z,1001.82
2022-12-01T05:28:42.107Z,1001.85
2022-12-01T05:29:42.111Z,1001.85
2022-12-01T05:30:42.091Z,1001.79
2022-12-01T05:31:42.140Z,1001.84
2022-12-01T05:32:42.075Z,1001.90
2022-12-01T05:33:42.068Z,1001.88
2022-12-01T05:34:42.072Z,1001.88
2022-12-01T05:35:42.082Z,1001.89
2022-12-01T05:36:42.052Z,1001.93
2022-12-01T05:37:42.041Z,1001.92
2022-12-01T05:38:42.041Z,1001.91
2022-12-01T05:39:42.040Z,1001.86
2022-12-01T05:40:42.017Z,1001.88
2022-12-01T05:41:42.025Z,1001.88
2022-12-01T05:42:42.013Z,1001.86
2022-12-01T05:43:42.008Z,1001.88
2022-12-01T05:44:42.216Z,1001.86
2022-12-01T05:45:42.054Z,1001.86
2022-12-01T05:46:41.981Z,1001.89
2022-12-01T05:47:41.980Z,1001.90
2022-12-01T05:48:41.978Z,1001.86
2022-12-01T05:49:42.004Z,1001.90
2022-12-01T05:50:41.972Z,1001.91
2022-12-01T05:51:41.949Z,1001.88
2022-12-01T05:52:41.940Z,1001.92
2022-12-01T05:53:41.960Z,1001.94
2022-12-01T05:54:41.933Z,1001.93
2022-12-01T05:55:41.949Z,1001.91
2022-12-01T05:56:41.920Z,1001.93
2022-12-01T05:57:41.910Z,1001.96
2022-12-01T05:58:41.913Z,1001.92
2022-12-01T05:59:41.896Z,1001.94
2022-12-01T06:00:45.703Z,1001.98
2022-12-01T06:01:42.942Z,1001.95
2022-12-01T06:02:41.872Z,1001.96
2022-12-01T06:03:41.921Z,1001.98
2022-12-01T06:04:41.870Z,1001.95
2022-12-01T06:05:41.865Z,1001.95
2022-12-01T06:06:41.849Z,1002.00
2022-12-01T06:07:41.897Z,1001.96
2022-12-01T06:08:41.828Z,1002.01
2022-12-01T06:09:41.848Z,1002.00
2022-12-01T06:10:41.837Z,1001.97
2022-12-01T06:11:41.814Z,1001.95
2022-12-01T06:12:41.808Z,1002.06
2022-12-01T06:13:41.809Z,1002.08
2022-12-01T06:14:41.795Z,1001.99
2022-12-01T06:15:41.841Z,1002.00
2022-12-01T06:16:41.817Z,1002.02
2022-12-01T06:17:41.780Z,1002.03
2022-12-01T06:18:41.774Z,1002.01
2022-12-01T06:19:41.745Z,1002.00
2022-12-01T06:20:41.749Z,1002.08
2022-12-01T06:21:41.738Z,1002.06
2022-12-01T06:22:41.749Z,1002.08
2022-12-01T06:23:41.720Z,1002.06
2022-12-01T06:24:41.720Z,1002.09
2022-12-01T06:25:41.710Z,1002.06
2022-12-01T06:26:41.718Z,1002.07
2022-12-01T06:27:41.753Z,1002.10
2022-12-01T06:28:41.691Z,1002.08
2022-12-01T06:29:42.379Z,1002.10
2022-12-01T06:30:42.693Z,1002.11
2022-12-01T06:31:41.685Z,1002.19
2022-12-01T06:32:41.680Z,1002.14
2022-12-01T06:33:41.642Z,1002.13
2022-12-01T06:34:41.656Z,1002.19
2022-12-01T06:35:41.639Z,1002.19
2022-12-01T06:36:41.635Z,1002.22
2022-12-01T06:37:41.627Z,1002.16
2022-12-01T06:38:41.635Z,1002.21
2022-12-01T06:39:41.601Z,1002.17
2022-12-01T06:40:41.624Z,1002.24
2022-12-01T06:41:41.601Z,1002.23
2022-12-01T06:42:41.598Z,1002.18
2022-12-01T06:43:41.590Z,1002.24
2022-12-01T06:44:41.601Z,1002.32
2022-12-01T06:45:41.620Z,1002.31
2022-12-01T06:46:41.569Z,1002.25
2022-12-01T06:47:41.559Z,1002.29
2022-12-01T06:48:41.551Z,1002.35
2022-12-01T06:49:41.547Z,1002.33
2022-12-01T06:50:41.555Z,1002.41
2022-12-01T06:51:41.532Z,1002.36
2022-12-01T06:52:41.531Z,1002.35
2022-12-01T06:53:41.519Z,1002.42
2022-12-01T06:54:41.518Z,1002.43
2022-12-01T06:55:41.511Z,1002.37
2022-12-01T06:56:41.513Z,1002.37
2022-12-01T06:57:41.499Z,1002.42
2022-12-01T06:58:41.498Z,1002.44
2022-12-01T06:59:41.479Z,1002.38
2022-12-01T07:00:45.392Z,1002.39
2022-12-01T07:01:42.556Z,1002.40
2022-12-01T07:02:41.551Z,1002.41
2022-12-01T07:03:41.464Z,1002.43
2022-12-01T07:04:41.459Z,1002.48
2022-12-01T07:05:41.453Z,1002.46
2022-12-01T07:06:41.444Z,1002.49
2022-12-01T07:07:42.525Z,1002.45
2022-12-01T07:08:41.440Z,1002.50
2022-12-01T07:09:41.420Z,1002.49
2022-12-01T07:10:41.395Z,1002.54
2022-12-01T07:11:41.433Z,1002.50
2022-12-01T07:12:41.446Z,1002.54
2022-12-01T07:13:41.421Z,1002.57
2022-12-01T07:14:41.406Z,1002.53
2022-12-01T07:15:41.386Z,1002.58
2022-12-01T07:16:41.421Z,1002.56
2022-12-01T07:17:41.364Z,1002.60
2022-12-01T07:18:41.397Z,1002.65
2022-12-01T07:19:41.354Z,1002.62
2022-12-01T07:20:41.355Z,1002.62
2022-12-01T07:21:41.380Z,1002.61
2022-12-01T07:22:41.350Z,1002.62
2022-12-01T07:23:41.362Z,1002.65
2022-12-01T07:24:41.349Z,1002.63
2022-12-01T07:25:41.318Z,1002.67
2022-12-01T07:26:41.412Z,1002.72
2022-12-01T07:27:41.292Z,1002.71
2022-12-01T07:28:41.302Z,1002.73
2022-12-01T07:29:41.281Z,1002.77
2022-12-01T07:30:41.309Z,1002.78
2022-12-01T07:31:41.292Z,1002.78
2022-12-01T07:32:41.270Z,1002.79
2022-12-01T07:33:41.268Z,1002.78
2022-12-01T07:34:41.256Z,1002.72
2022-12-01T07:35:41.243Z,1002.78
2022-12-01T07:36:41.239Z,1002.81
2022-12-01T07:37:41.229Z,1002.79
2022-12-01T07:38:41.213Z,1002.81
2022-12-01T07:39:41.230Z,1002.81
2022-12-01T07:40:41.222Z,1002.79
2022-12-01T07:41:41.205Z,1002.82
2022-12-01T07:42:41.191Z,1002.74
2022-12-01T07:43:41.196Z,1002.82
2022-12-01T07:44:41.206Z,1002.83
2022-12-01T07:45:41.220Z,1002.79
2022-12-01T07:46:41.214Z,1002.79
2022-12-01T07:47:41.171Z,1002.85
2022-12-01T07:48:41.157Z,1002.82
2022-12-01T07:49:41.258Z,1002.82
2022-12-01T07:50:41.149Z,1002.77
2022-12-01T07:51:41.136Z,1002.77
2022-12-01T07:52:41.148Z,1002.72
2022-12-01T07:53:41.125Z,1002.69
2022-12-01T07:54:41.252Z,1002.71
2022-12-01T07:55:41.126Z,1002.73
2022-12-01T07:56:41.126Z,1002.75
2022-12-01T07:57:41.093Z,1002.80
2022-12-01T07:58:41.084Z,1002.74
2022-12-01T07:59:41.100Z,1002.73
2022-12-01T08:00:41.065Z,1002.74
2022-12-01T08:01:44.426Z,1002.74
2022-12-01T08:02:42.131Z,1002.76
2022-12-01T08:03:41.073Z,1002.71
2022-12-01T08:04:41.054Z,1002.75
2022-12-01T08:05:41.044Z,1002.77
2022-12-01T08:06:41.037Z,1002.79
2022-12-01T08:07:41.146Z,1002.72
2022-12-01T08:08:41.062Z,1002.78
2022-12-01T08:09:41.117Z,1002.81
2022-12-01T08:10:41.005Z,1002.80
2022-12-01T08:11:41.000Z,1002.83
2022-12-01T08:12:41.996Z,1002.87
2022-12-01T08:13:41.008Z,1002.89
2022-12-01T08:14:41.090Z,1002.85
2022-12-01T08:15:41.053Z,1002.89
2022-12-01T08:16:40.969Z,1002.91
2022-12-01T08:17:40.961Z,1002.90
2022-12-01T08:18:40.948Z,1002.91
2022-12-01T08:19:40.976Z,1002.92
2022-12-01T08:20:40.992Z,1002.89
2022-12-01T08:21:40.941Z,1002.91
2022-12-01T08:22:40.936Z,1002.94
2022-12-01T08:23:40.932Z,1002.89
2022-12-01T08:24:40.920Z,1002.91
2022-12-01T08:25:40.901Z,1002.94
2022-12-01T08:26:40.933Z,1002.88
2022-12-01T08:27:40.908Z,1002.95
2022-12-01T08:28:40.896Z,1002.95
2022-12-01T08:29:40.888Z,1003.03
2022-12-01T08:30:40.992Z,1002.96
2022-12-01T08:31:41.002Z,1002.95
2022-12-01T08:32:40.886Z,1002.99
2022-12-01T08:33:40.866Z,1002.95
2022-12-01T08:34:40.850Z,1002.99
2022-12-01T08:35:40.850Z,1002.98
2022-12-01T08:36:40.853Z,1002.98
2022-12-01T08:37:40.842Z,1002.92
2022-12-01T08:38:40.826Z,1002.94
2022-12-01T08:39:40.829Z,1002.96
2022-12-01T08:40:40.905Z,1003.03
2022-12-01T08:41:40.806Z,1003.00
2022-12-01T08:42:41.012Z,1002.98
2022-12-01T08:43:57.379Z,1003.00
2022-12-01T08:44:42.857Z,1003.06
2022-12-01T08:45:40.784Z,1003.09
2022-12-01T08:46:40.833Z,1003.02
2022-12-01T08:47:40.793Z,1003.01
2022-12-01T08:48:40.767Z,1003.01
2022-12-01T08:49:40.760Z,1002.99
2022-12-01T08:50:40.772Z,1003.03
2022-12-01T08:51:40.747Z,1003.07
2022-12-01T08:52:40.748Z,1003.05
2022-12-01T08:53:45.303Z,1003.07
2022-12-01T08:54:42.741Z,1003.05
2022-12-01T08:55:40.732Z,1003.04
2022-12-01T08:56:40.712Z,1003.04
2022-12-01T08:57:40.709Z,1003.07
2022-12-01T08:58:40.692Z,1003.07
2022-12-01T08:59:40.712Z,1003.01
2022-12-01T09:00:40.685Z,1003.06
2022-12-01T09:01:40.707Z,1003.06
2022-12-01T09:02:40.706Z,1003.03
2022-12-01T09:03:40.668Z,1003.05
2022-12-01T09:04:40.658Z,1003.12
2022-12-01T09:05:40.660Z,1003.12
2022-12-01T09:06:40.698Z,1003.03
2022-12-01T09:07:40.703Z,1003.00
2022-12-01T09:08:40.625Z,1003.11
2022-12-01T09:09:40.620Z,1002.97
2022-12-01T09:10:40.648Z,1003.05
2022-12-01T09:11:40.621Z,1003.06
2022-12-01T09:12:40.604Z,1003.10
2022-12-01T09:13:40.596Z,1003.15
2022-12-01T09:14:40.593Z,1003.16
2022-12-01T09:15:40.593Z,1003.17
2022-12-01T09:16:40.645Z,1003.20
2022-12-01T09:17:40.567Z,1003.21
2022-12-01T09:18:40.564Z,1003.18
2022-12-01T09:19:40.560Z,1003.18
2022-12-01T09:20:40.546Z,1003.16
2022-12-01T09:21:40.549Z,1003.23
2022-12-01T09:22:40.529Z,1003.18
2022-12-01T09:23:40.551Z,1003.18
2022-12-01T09:24:40.526Z,1003.20
2022-12-01T09:25:40.519Z,1003.19
2022-12-01T09:26:40.531Z,1003.21
2022-12-01T09:27:40.518Z,1003.27
2022-12-01T09:28:40.511Z,1003.26
2022-12-01T09:29:40.493Z,1003.20
2022-12-01T09:30:40.493Z,1003.29
2022-12-01T09:31:40.574Z,1003.29
2022-12-01T09:32:40.490Z,1003.27
2022-12-01T09:33:40.470Z,1003.32
2022-12-01T09:34:40.463Z,1003.31
2022-12-01T09:35:40.451Z,1003.28
2022-12-01T09:36:40.450Z,1003.30
2022-12-01T09:37:40.481Z,1003.29
2022-12-01T09:38:40.438Z,1003.28
2022-12-01T09:39:40.454Z,1003.28
2022-12-01T09:40:40.429Z,1003.30
2022-12-01T09:41:40.418Z,1003.21
2022-12-01T09:42:40.412Z,1003.21
2022-12-01T09:43:40.413Z,1003.25
2022-12-01T09:44:40.394Z,1003.18
2022-12-01T09:45:40.385Z,1003.23
2022-12-01T09:46:40.454Z,1003.23
2022-12-01T09:47:40.401Z,1003.23
2022-12-01T09:48:40.370Z,1003.15
2022-12-01T09:49:40.373Z,1003.17
2022-12-01T09:50:40.354Z,1003.21
2022-12-01T09:51:40.355Z,1003.17
2022-12-01T09:52:40.345Z,1003.10
2022-12-01T09:53:40.331Z,1003.07
2022-12-01T09:54:40.337Z,1003.13
2022-12-01T09:55:40.379Z,1003.12
2022-12-01T09:56:40.314Z,1003.12
2022-12-01T09:57:40.297Z,1003.08
2022-12-01T09:58:40.330Z,1003.13
2022-12-01T09:59:40.307Z,1003.11
2022-12-01T10:00:40.352Z,1003.13
2022-12-01T10:01:41.352Z,1003.11
2022-12-01T10:02:40.289Z,1003.15
2022-12-01T10:03:40.291Z,1003.15
2022-12-01T10:04:40.274Z,1003.13
2022-12-01T10:05:56.620Z,1003.15
2022-12-01T10:06:42.312Z,1003.16
2022-12-01T10:07:40.348Z,1003.15
2022-12-01T10:08:40.246Z,1003.14
2022-12-01T10:09:40.243Z,1003.08
2022-12-01T10:10:40.229Z,1003.08
2022-12-01T10:11:40.226Z,1003.18
2022-12-01T10:12:40.217Z,1003.16
2022-12-01T10:13:42.742Z,1003.10
2022-12-01T10:14:40.206Z,1003.11
2022-12-01T10:15:40.203Z,1003.14
2022-12-01T10:16:40.246Z,1003.09
2022-12-01T10:17:40.181Z,1003.09
2022-12-01T10:18:40.170Z,1003.06
2022-12-01T10:19:40.171Z,1003.04
2022-12-01T10:20:40.186Z,1003.07
2022-12-01T10:21:40.151Z,1002.98
2022-12-01T10:22:40.179Z,1003.05
2022-12-01T10:23:40.161Z,1003.03
2022-12-01T10:24:40.130Z,1002.98
2022-12-01T10:25:40.125Z,1002.98
2022-12-01T10:26:40.120Z,1002.99
2022-12-01T10:27:40.110Z,1002.86
2022-12-01T10:28:40.107Z,1002.87
2022-12-01T10:29:43.745Z,1002.92
2022-12-01T10:30:41.114Z,1002.90
2022-12-01T10:31:40.129Z,1002.93
2022-12-01T10:32:40.070Z,1002.91
2022-12-01T10:33:40.066Z,1002.92
2022-12-01T10:34:40.058Z,1002.94
2022-12-01T10:35:40.057Z,1002.88
2022-12-01T10:36:40.071Z,1002.88
2022-12-01T10:37:40.085Z,1002.87
2022-12-01T10:38:40.041Z,1002.86
2022-12-01T10:39:40.032Z,1002.88
2022-12-01T10:40:40.006Z,1002.83
2022-12-01T10:41:40.039Z,1002.86
2022-12-01T10:42:40.004Z,1002.83
2022-12-01T10:43:40.024Z,1002.87
2022-12-01T10:44:39.998Z,1002.84
2022-12-01T10:45:40.103Z,1002.80
2022-12-01T10:46:39.987Z,1002.88
2022-12-01T10:47:39.971Z,1002.81
2022-12-01T10:48:39.966Z,1002.86
2022-12-01T10:49:39.962Z,1002.91
2022-12-01T10:50:39.958Z,1002.89
2022-12-01T10:51:39.949Z,1002.90
2022-12-01T10:52:39.945Z,1002.85
2022-12-01T10:53:39.935Z,1002.86
2022-12-01T10:54:39.952Z,1002.88
2022-12-01T10:55:43.471Z,1002.84
2022-12-01T10:56:40.920Z,1002.84
2022-12-01T10:57:39.915Z,1002.83
2022-12-01T10:58:39.906Z,1002.83
2022-12-01T10:59:39.939Z,1002.81
2022-12-01T11:01:42.002Z,1002.78
2022-12-01T11:02:40.027Z,1002.75
2022-12-01T11:03:39.901Z,1002.67
2022-12-01T11:04:39.894Z,1002.69
2022-12-01T11:05:39.851Z,1002.70
2022-12-01T11:06:39.862Z,1002.74
2022-12-01T11:07:39.873Z,1002.70
2022-12-01T11:08:40.838Z,1002.71
2022-12-01T11:09:39.843Z,1002.71
2022-12-01T11:10:39.846Z,1002.72
2022-12-01T11:11:39.811Z,1002.73
2022-12-01T11:12:39.813Z,1002.72
2022-12-01T11:13:39.820Z,1002.71
2022-12-01T11:14:39.807Z,1002.74
2022-12-01T11:15:39.821Z,1002.74
2022-12-01T11:16:39.914Z,1002.75
2022-12-01T11:17:39.790Z,1002.65
2022-12-01T11:18:39.826Z,1002.61
2022-12-01T11:19:39.940Z,1002.65
2022-12-01T11:20:39.804Z,1002.61
2022-12-01T11:21:39.770Z,1002.61
2022-12-01T11:22:39.772Z,1002.62
2022-12-01T11:23:39.736Z,1002.63
2022-12-01T11:24:39.745Z,1002.62
2022-12-01T11:25:39.734Z,1002.59
2022-12-01T11:26:39.709Z,1002.61
2022-12-01T11:27:39.789Z,1002.59
2022-12-01T11:28:39.713Z,1002.56
2022-12-01T11:29:39.701Z,1002.51
2022-12-01T11:30:39.698Z,1002.60
2022-12-01T11:31:39.731Z,1002.62
2022-12-01T11:32:39.782Z,1002.57
2022-12-01T11:33:39.688Z,1002.56
2022-12-01T11:34:39.665Z,1002.56
2022-12-01T11:35:39.669Z,1002.55
2022-12-01T11:36:39.661Z,1002.53
2022-12-01T11:37:39.652Z,1002.52
2022-12-01T11:38:39.671Z,1002.51
2022-12-01T11:39:39.632Z,1002.50
2022-12-01T11:40:39.650Z,1002.50
2022-12-01T11:41:39.637Z,1002.47
2022-12-01T11:42:39.616Z,1002.42
2022-12-01T11:43:43.718Z,1002.49
2022-12-01T11:44:51.369Z,1002.45
2022-12-01T11:45:41.631Z,1002.45
2022-12-01T11:46:46.334Z,1002.43
2022-12-01T11:47:41.589Z,1002.43
2022-12-01T11:48:39.578Z,1002.38
2022-12-01T11:49:45.510Z,1002.44
2022-12-01T11:50:41.564Z,1002.41
2022-12-01T11:51:39.591Z,1002.39
2022-12-01T11:52:39.549Z,1002.39
2022-12-01T11:53:40.549Z,1002.41
2022-12-01T11:54:39.539Z,1002.39
2022-12-01T11:55:39.529Z,1002.38
2022-12-01T11:56:39.566Z,1002.37
2022-12-01T11:57:39.520Z,1002.34
2022-12-01T11:58:39.574Z,1002.37
2022-12-01T11:59:39.524Z,1002.34
2022-12-01T12:00:40.489Z,1002.32
2022-12-01T12:01:39.514Z,1002.30
2022-12-01T12:02:39.516Z,1002.32
2022-12-01T12:03:39.524Z,1002.35
2022-12-01T12:04:39.508Z,1002.42
2022-12-01T12:05:39.474Z,1002.34
2022-12-01T12:06:40.438Z,1002.30